Airfield :
LOGIN :

Register | Disclaimer

   EN    FR    IT 

 










Legend :    VFR   Marginal VFR   IFR   Intensive IFR   Very Intensive IFR
Visi :
Ceiling :
>= 8 km
>= 3000ft
5 to 8 km
1000 to 3000 ft
1500m to 5 km
500 to 1000 ft
800 to 1500m
200 to 500 ft
< 800m
< 200 ft
Symbols :   Thunderstorms  Fog  Heavy snow  Heavy precipitations  Wind > 20 kt
SIGMETs :     Misc.  Thunderstorms  Icing  Turbulence  Mountain Waves  Volcanic Ashes






- Airport Elevation : 291 ft
- IATA code : ORY


LFPO - Paris-Orly

CURRENT METAR :
  • 280830Z 21004KT 9999 FEW006 BKN150 08/08 Q1012 TEMPO BKN008

EXPIRED METARs :
  • 280800Z 23005KT 9999 FEW006 BKN140 08/08 Q1012 TEMPO BKN008
  • 280730Z 25007KT 9999 SCT006 BKN140 08/08 Q1012 TEMPO BKN008
  • 280700Z 25006KT 9999 BKN005 09/08 Q1012 BECMG BKN008
  • 280630Z 25005KT 9999 BKN004 09/08 Q1011 NOSIG
  • 280600Z 25005KT 9999 BKN004 08/08 Q1011 NOSIG

TAF AMD TAF LFPO
Valid from the 28 at 08:00 until the 29 at 12:00 UTC


280805Z 2808/2912 21010KT 9999 FEW008
PROB30
TEMPO 2808/2810 BKN008
BECMG 2810/2812 BKN012
BECMG 2812/2814 SCT017
PROB30
TEMPO 2814/2817 SCT020TCU
BECMG 2822/2824 VRB03KT
TEMPO 2901/2910 2500 BR
PROB40
TEMPO 2903/2910 0600 FG VV///
BECMG 2910/2912 4000 BR BKN004
ATIS : +33 1 49 75 65 80



MET'MAP, your aeronautical weather chart ! - Copyright ORBIFLY December 2007 - Disclaimer

ORBIFLY MET'MAP TEAM :

Programming & Development : Alexandra Zaïnal
Original concept : Baudouin d'Aumeries
Technical & hardware support : Manuel Goepfert
Assistance : Marc-Olivier Méhu




SOURCES & CREDITS :

   NOAA